createdAt,value
2023-04-18T05:03:20.231Z,596.00
2023-04-18T05:04:21.187Z,594.00
2023-04-18T05:05:21.096Z,594.00
2023-04-18T05:06:20.138Z,594.00
2023-04-18T05:07:21.116Z,593.00
2023-04-18T05:08:20.165Z,594.00
2023-04-18T05:09:20.224Z,595.00
2023-04-18T05:10:21.260Z,594.00
2023-04-18T05:11:20.261Z,596.00
2023-04-18T05:12:21.249Z,596.00
2023-04-18T05:13:21.255Z,596.00
2023-04-18T05:14:20.245Z,597.00
2023-04-18T05:15:21.284Z,601.00
2023-04-18T05:16:20.264Z,601.00
2023-04-18T05:17:21.280Z,560.00
2023-04-18T05:18:20.345Z,531.00
2023-04-18T05:19:21.363Z,537.00
2023-04-18T05:20:21.388Z,539.00
2023-04-18T05:21:20.439Z,536.00
2023-04-18T05:22:20.500Z,533.00
2023-04-18T05:23:21.511Z,528.00
2023-04-18T05:24:21.524Z,522.00
2023-04-18T05:25:20.532Z,520.00
2023-04-18T05:26:21.566Z,528.00
2023-04-18T05:27:20.652Z,532.00
2023-04-18T05:28:21.644Z,547.00
2023-04-18T05:29:21.655Z,559.00
2023-04-18T05:30:20.677Z,563.00
2023-04-18T05:31:20.791Z,567.00
2023-04-18T05:32:21.678Z,568.00
2023-04-18T05:33:21.679Z,569.00
2023-04-18T05:34:21.690Z,572.00
2023-04-18T05:35:20.775Z,581.00
2023-04-18T05:36:21.809Z,594.00
2023-04-18T05:37:21.854Z,676.00
2023-04-18T05:38:20.870Z,664.00
2023-04-18T05:39:21.922Z,664.00
2023-04-18T05:40:21.994Z,665.00
2023-04-18T05:41:21.973Z,669.00
2023-04-18T05:42:21.976Z,670.00
2023-04-18T05:43:21.989Z,679.00
2023-04-18T05:44:21.381Z,700.00
2023-04-18T05:45:21.135Z,710.00
2023-04-18T05:46:22.073Z,716.00
2023-04-18T05:47:21.157Z,721.00
2023-04-18T05:48:21.034Z,731.00
2023-04-18T05:49:22.036Z,761.00
2023-04-18T05:50:22.072Z,778.00
2023-04-18T05:51:22.127Z,824.00
2023-04-18T05:52:22.132Z,843.00
2023-04-18T05:53:22.183Z,914.00
2023-04-18T05:54:22.252Z,934.00
2023-04-18T05:55:21.306Z,941.00
2023-04-18T05:56:22.334Z,953.00
2023-04-18T05:57:22.408Z,960.00
2023-04-18T05:58:22.420Z,971.00
2023-04-18T05:59:22.493Z,1003.00
2023-04-18T06:00:22.670Z,1034.00
2023-04-18T06:01:22.575Z,1044.00
2023-04-18T06:02:22.271Z,1042.00
2023-04-18T06:03:22.933Z,844.00
2023-04-18T06:04:22.834Z,723.00
2023-04-18T06:05:24.724Z,624.00
2023-04-18T06:06:22.693Z,608.00
2023-04-18T06:07:22.780Z,593.00
2023-04-18T06:08:21.839Z,578.00
2023-04-18T06:09:22.688Z,725.00
2023-04-18T06:10:21.665Z,711.00
2023-04-18T06:11:21.920Z,729.00
2023-04-18T06:12:22.646Z,736.00
2023-04-18T06:13:21.650Z,746.00
2023-04-18T06:14:22.635Z,762.00
2023-04-18T06:15:21.644Z,783.00
2023-04-18T06:16:21.669Z,794.00
2023-04-18T06:17:21.674Z,813.00
2023-04-18T06:18:22.619Z,835.00
2023-04-18T06:19:21.598Z,849.00
2023-04-18T06:20:22.642Z,858.00
2023-04-18T06:21:22.585Z,869.00
2023-04-18T06:22:22.582Z,885.00
2023-04-18T06:23:22.593Z,896.00
2023-04-18T06:24:21.555Z,904.00
2023-04-18T06:25:22.574Z,912.00
2023-04-18T06:26:22.540Z,931.00
2023-04-18T06:27:31.021Z,941.00
2023-04-18T06:28:22.537Z,947.00
2023-04-18T06:29:22.525Z,953.00
2023-04-18T06:30:21.544Z,962.00
2023-04-18T06:31:22.522Z,969.00
2023-04-18T06:32:22.554Z,975.00
2023-04-18T06:33:22.518Z,979.00
2023-04-18T06:34:22.494Z,985.00
2023-04-18T06:35:21.521Z,992.00
2023-04-18T06:36:21.482Z,998.00
2023-04-18T06:37:22.477Z,1004.00
2023-04-18T06:38:22.476Z,1014.00
2023-04-18T06:39:22.487Z,1017.00
2023-04-18T06:40:21.472Z,1019.00
2023-04-18T06:41:22.472Z,1024.00
2023-04-18T06:42:22.951Z,1024.00
2023-04-18T06:43:22.439Z,1029.00
2023-04-18T06:44:22.428Z,1037.00
2023-04-18T06:45:22.427Z,1043.00
2023-04-18T06:46:22.523Z,1046.00
2023-04-18T06:47:22.435Z,1051.00
2023-04-18T06:48:22.410Z,1052.00
2023-04-18T06:49:26.438Z,1053.00
2023-04-18T06:50:21.397Z,1060.00
2023-04-18T06:51:22.381Z,1061.00
2023-04-18T06:52:22.371Z,1067.00
2023-04-18T06:53:22.380Z,1066.00
2023-04-18T06:54:22.395Z,1077.00
2023-04-18T06:55:21.485Z,1087.00
2023-04-18T06:56:21.522Z,1102.00
2023-04-18T06:57:21.579Z,1123.00
2023-04-18T06:58:21.613Z,1139.00
2023-04-18T06:59:21.697Z,1051.00
2023-04-18T07:00:21.754Z,1120.00
2023-04-18T07:01:21.793Z,1131.00
2023-04-18T07:02:22.924Z,1118.00
2023-04-18T07:03:23.075Z,1134.00
2023-04-18T07:04:23.082Z,1142.00
2023-04-18T07:05:22.973Z,1143.00
2023-04-18T07:06:23.023Z,1144.00
2023-04-18T07:07:22.079Z,1145.00
2023-04-18T07:08:22.153Z,1144.00
2023-04-18T07:09:23.209Z,1143.00
2023-04-18T07:10:22.277Z,1147.00
2023-04-18T07:11:22.449Z,1151.00
2023-04-18T07:12:23.541Z,1161.00
2023-04-18T07:13:23.525Z,1171.00
2023-04-18T07:14:23.480Z,1183.00
2023-04-18T07:15:22.529Z,1189.00
2023-04-18T07:16:23.680Z,1196.00
2023-04-18T07:17:22.680Z,1206.00
2023-04-18T07:18:36.778Z,1212.00
2023-04-18T07:19:23.684Z,1214.00
2023-04-18T07:20:22.679Z,1213.00
2023-04-18T07:21:23.672Z,1212.00
2023-04-18T07:22:22.670Z,1214.00
2023-04-18T07:23:22.682Z,1209.00
2023-04-18T07:24:22.652Z,1211.00
2023-04-18T07:25:23.633Z,1214.00
2023-04-18T07:26:23.637Z,1215.00
2023-04-18T07:27:23.651Z,1217.00
2023-04-18T07:28:22.615Z,1216.00
2023-04-18T07:29:23.651Z,1221.00
2023-04-18T07:30:23.619Z,1230.00
2023-04-18T07:31:23.642Z,1239.00
2023-04-18T07:32:23.613Z,1242.00
2023-04-18T07:33:23.574Z,1244.00
2023-04-18T07:34:23.582Z,1243.00
2023-04-18T07:35:23.591Z,1243.00
2023-04-18T07:36:23.602Z,1246.00
2023-04-18T07:37:23.617Z,1251.00
2023-04-18T07:38:23.556Z,1252.00
2023-04-18T07:39:23.538Z,1257.00
2023-04-18T07:40:23.547Z,1258.00
2023-04-18T07:41:23.546Z,1262.00
2023-04-18T07:42:23.537Z,1268.00
2023-04-18T07:43:22.549Z,1272.00
2023-04-18T07:44:23.518Z,1278.00
2023-04-18T07:45:23.586Z,1282.00
2023-04-18T07:46:23.593Z,1286.00
2023-04-18T07:47:22.728Z,1289.00
2023-04-18T07:48:23.509Z,1292.00
2023-04-18T07:49:23.484Z,1296.00
2023-04-18T07:50:23.532Z,1296.00
2023-04-18T07:51:23.698Z,1304.00
2023-04-18T07:52:23.555Z,1323.00
2023-04-18T07:53:23.594Z,1343.00
2023-04-18T07:54:23.584Z,1368.00
2023-04-18T07:55:23.599Z,1392.00
2023-04-18T07:56:23.631Z,1416.00
2023-04-18T07:57:23.626Z,1452.00
2023-04-18T07:58:23.617Z,1490.00
2023-04-18T07:59:23.808Z,1495.00
2023-04-18T08:00:22.648Z,1506.00
2023-04-18T08:01:23.640Z,1515.00
2023-04-18T08:02:22.792Z,1521.00
2023-04-18T08:03:23.819Z,1527.00
2023-04-18T08:04:23.774Z,1535.00
2023-04-18T08:05:23.754Z,1559.00
2023-04-18T08:06:23.662Z,1585.00
2023-04-18T08:07:23.681Z,1599.00
2023-04-18T08:08:22.726Z,1611.00
2023-04-18T08:09:22.722Z,1620.00
2023-04-18T08:10:23.958Z,1631.00
2023-04-18T08:11:23.764Z,1669.00
2023-04-18T08:12:23.779Z,1662.00
2023-04-18T08:13:23.837Z,1651.00
2023-04-18T08:14:23.812Z,1645.00
2023-04-18T08:15:23.820Z,1644.00
2023-04-18T08:16:23.842Z,1655.00
2023-04-18T08:17:22.849Z,1660.00
2023-04-18T08:18:23.806Z,1671.00
2023-04-18T08:19:22.839Z,1684.00
2023-04-18T08:20:23.901Z,1701.00
2023-04-18T08:21:22.956Z,1717.00
2023-04-18T08:22:23.905Z,1728.00
2023-04-18T08:23:22.915Z,1736.00
2023-04-18T08:24:23.921Z,1740.00
2023-04-18T08:25:22.961Z,1745.00
2023-04-18T08:26:22.931Z,1745.00
2023-04-18T08:27:22.918Z,1738.00
2023-04-18T08:28:23.914Z,1734.00
2023-04-18T08:29:22.918Z,1690.00
2023-04-18T08:30:22.954Z,1686.00
2023-04-18T08:31:23.027Z,1671.00
2023-04-18T08:32:23.976Z,1651.00
2023-04-18T08:33:23.917Z,1640.00
2023-04-18T08:34:23.907Z,1624.00
2023-04-18T08:35:22.935Z,1615.00
2023-04-18T08:36:23.980Z,1601.00
2023-04-18T08:37:22.958Z,1588.00
2023-04-18T08:38:23.897Z,1581.00
2023-04-18T08:39:25.322Z,1569.00
2023-04-18T08:40:23.944Z,1563.00
2023-04-18T08:41:23.214Z,1558.00
2023-04-18T08:42:22.977Z,1554.00
2023-04-18T08:43:23.960Z,1542.00
2023-04-18T08:44:22.960Z,1476.00
2023-04-18T08:45:22.954Z,1447.00
2023-04-18T08:46:24.002Z,1350.00
2023-04-18T08:47:24.023Z,1293.00
2023-04-18T08:48:24.009Z,1018.00
2023-04-18T08:49:24.043Z,762.00
2023-04-18T08:50:24.110Z,829.00
2023-04-18T08:51:24.078Z,837.00
2023-04-18T08:52:24.080Z,1012.00
2023-04-18T08:53:24.070Z,1022.00
2023-04-18T08:54:25.594Z,1044.00
2023-04-18T08:55:23.104Z,1052.00
2023-04-18T08:56:24.208Z,1045.00
2023-04-18T08:57:24.108Z,1060.00
2023-04-18T08:58:23.088Z,1085.00
2023-04-18T08:59:23.089Z,1158.00
2023-04-18T09:00:23.082Z,1196.00
2023-04-18T09:01:23.137Z,1230.00
2023-04-18T09:02:24.201Z,1252.00
2023-04-18T09:03:24.169Z,1306.00
2023-04-18T09:04:24.097Z,1319.00
2023-04-18T09:05:24.050Z,1345.00
2023-04-18T09:06:23.051Z,1371.00
2023-04-18T09:07:24.060Z,1425.00
2023-04-18T09:08:23.048Z,1451.00
2023-04-18T09:09:24.015Z,1471.00
2023-04-18T09:10:24.054Z,1489.00
2023-04-18T09:11:23.006Z,1509.00
2023-04-18T09:12:24.001Z,1578.00
2023-04-18T09:13:24.607Z,1601.00
2023-04-18T09:14:23.012Z,1608.00
2023-04-18T09:15:22.988Z,1627.00
2023-04-18T09:16:23.983Z,1642.00
2023-04-18T09:17:23.988Z,1651.00
2023-04-18T09:18:23.994Z,1649.00
2023-04-18T09:19:24.005Z,1642.00
2023-04-18T09:20:22.964Z,1634.00
2023-04-18T09:21:23.984Z,1619.00
2023-04-18T09:22:23.948Z,1610.00
2023-04-18T09:23:23.921Z,1590.00
2023-04-18T09:24:22.926Z,1579.00
2023-04-18T09:25:22.934Z,1576.00
2023-04-18T09:26:24.001Z,1564.00
2023-04-18T09:27:24.041Z,1557.00
2023-04-18T09:28:24.099Z,1562.00
2023-04-18T09:29:23.121Z,1565.00
2023-04-18T09:30:23.177Z,1561.00
2023-04-18T09:31:23.254Z,1554.00
2023-04-18T09:32:24.290Z,1541.00
2023-04-18T09:33:23.339Z,1535.00
2023-04-18T09:34:23.412Z,1528.00
2023-04-18T09:35:24.522Z,1527.00
2023-04-18T09:36:24.591Z,1520.00
2023-04-18T09:37:24.585Z,1508.00
2023-04-18T09:38:24.647Z,1494.00
2023-04-18T09:39:24.734Z,1499.00
2023-04-18T09:40:24.806Z,1500.00
2023-04-18T09:41:23.859Z,1502.00
2023-04-18T09:42:26.201Z,1515.00
2023-04-18T09:43:23.882Z,1536.00
2023-04-18T09:44:23.885Z,1543.00
2023-04-18T09:45:23.865Z,1557.00
2023-04-18T09:46:25.294Z,1562.00
2023-04-18T09:47:24.901Z,1565.00
2023-04-18T09:48:24.859Z,1368.00
2023-04-18T09:49:23.848Z,1378.00
2023-04-18T09:50:23.874Z,1456.00
2023-04-18T09:51:24.868Z,1460.00
2023-04-18T09:52:25.230Z,1461.00
2023-04-18T09:53:24.797Z,1461.00
2023-04-18T09:54:24.790Z,1457.00
2023-04-18T09:55:24.795Z,1455.00
2023-04-18T09:56:23.774Z,1446.00
2023-04-18T09:57:23.785Z,1442.00
2023-04-18T09:58:24.777Z,1441.00
2023-04-18T09:59:23.759Z,1443.00
2023-04-18T10:00:23.799Z,1444.00
2023-04-18T10:01:23.782Z,1441.00
2023-04-18T10:02:24.816Z,1435.00
2023-04-18T10:03:23.823Z,1434.00
2023-04-18T10:04:24.794Z,1434.00
2023-04-18T10:05:24.745Z,1427.00
2023-04-18T10:06:24.709Z,1427.00
2023-04-18T10:07:24.737Z,1422.00
2023-04-18T10:08:24.717Z,1421.00
2023-04-18T10:09:23.682Z,1422.00
2023-04-18T10:10:23.715Z,1419.00
2023-04-18T10:11:24.688Z,1420.00
2023-04-18T10:12:24.673Z,1419.00
2023-04-18T10:13:23.667Z,1419.00
2023-04-18T10:14:23.653Z,1420.00
2023-04-18T10:15:24.654Z,1419.00
2023-04-18T10:16:23.708Z,1418.00
2023-04-18T10:17:23.685Z,1417.00
2023-04-18T10:18:23.690Z,1414.00
2023-04-18T10:19:24.692Z,1415.00
2023-04-18T10:20:23.689Z,1416.00
2023-04-18T10:21:24.619Z,1416.00
2023-04-18T10:22:24.632Z,1416.00
2023-04-18T10:23:23.664Z,1417.00
2023-04-18T10:24:24.581Z,1415.00
2023-04-18T10:25:23.586Z,1417.00
2023-04-18T10:26:24.597Z,1417.00
2023-04-18T10:27:23.569Z,1416.00
2023-04-18T10:28:24.246Z,1415.00
2023-04-18T10:29:23.553Z,1415.00
2023-04-18T10:30:24.538Z,1414.00
2023-04-18T10:31:24.608Z,1415.00
2023-04-18T10:32:24.563Z,1417.00
2023-04-18T10:33:29.928Z,1419.00
2023-04-18T10:34:24.519Z,1420.00
2023-04-18T10:35:24.506Z,1420.00
2023-04-18T10:36:24.641Z,1419.00
2023-04-18T10:37:24.501Z,1422.00
2023-04-18T10:38:24.501Z,1420.00
2023-04-18T10:39:24.515Z,1420.00
2023-04-18T10:40:23.479Z,1419.00
2023-04-18T10:41:24.500Z,1416.00
2023-04-18T10:42:23.736Z,1414.00
2023-04-18T10:43:23.456Z,1413.00
2023-04-18T10:44:24.499Z,1413.00
2023-04-18T10:45:23.461Z,1411.00
2023-04-18T10:46:31.592Z,1409.00
2023-04-18T10:47:24.964Z,1409.00
2023-04-18T10:48:24.500Z,1409.00
2023-04-18T10:49:26.793Z,1408.00
2023-04-18T10:50:23.405Z,1406.00
2023-04-18T10:51:24.394Z,1405.00
2023-04-18T10:52:23.397Z,1405.00
2023-04-18T10:53:24.404Z,1406.00
2023-04-18T10:54:24.372Z,1404.00
2023-04-18T10:55:24.391Z,1404.00
2023-04-18T10:56:24.377Z,1404.00
2023-04-18T10:57:23.347Z,1402.00
2023-04-18T10:58:24.357Z,1401.00
2023-04-18T10:59:24.331Z,1401.00
2023-04-18T11:00:23.326Z,1403.00
2023-04-18T11:01:24.365Z,1402.00
2023-04-18T11:02:23.430Z,1400.00
2023-04-18T11:03:24.362Z,1400.00
2023-04-18T11:04:23.321Z,1403.00
2023-04-18T11:05:23.280Z,1400.00
2023-04-18T11:06:24.281Z,1402.00
2023-04-18T11:07:24.279Z,1402.00
2023-04-18T11:08:24.277Z,1402.00
2023-04-18T11:09:24.260Z,1404.00
2023-04-18T11:10:23.251Z,1398.00
2023-04-18T11:11:24.280Z,1396.00
2023-04-18T11:12:23.255Z,1396.00
2023-04-18T11:13:23.234Z,1395.00
2023-04-18T11:14:24.220Z,1396.00
2023-04-18T11:15:24.226Z,1395.00
2023-04-18T11:16:24.241Z,1397.00
2023-04-18T11:17:24.351Z,1395.00
2023-04-18T11:18:24.199Z,1394.00
2023-04-18T11:19:23.185Z,1394.00
2023-04-18T11:20:24.185Z,1395.00
2023-04-18T11:21:24.180Z,1395.00
2023-04-18T11:22:24.163Z,1392.00
2023-04-18T11:23:24.213Z,1388.00
2023-04-18T11:24:24.405Z,1389.00
2023-04-18T11:25:24.226Z,1384.00
2023-04-18T11:26:23.208Z,1386.00
2023-04-18T11:27:23.162Z,1388.00
2023-04-18T11:28:23.125Z,1389.00
2023-04-18T11:29:23.121Z,1387.00
2023-04-18T11:30:23.123Z,1383.00
2023-04-18T11:31:23.133Z,1383.00
2023-04-18T11:32:23.277Z,1382.00
2023-04-18T11:33:24.167Z,1382.00
2023-04-18T11:34:23.086Z,1379.00
2023-04-18T11:35:24.079Z,1378.00
2023-04-18T11:36:23.092Z,1376.00
2023-04-18T11:37:24.268Z,1376.00
2023-04-18T11:38:24.279Z,1376.00
2023-04-18T11:39:23.059Z,1381.00
2023-04-18T11:40:24.043Z,1384.00
2023-04-18T11:41:24.038Z,1386.00
2023-04-18T11:42:24.048Z,1389.00
2023-04-18T11:43:24.081Z,1386.00
2023-04-18T11:44:24.015Z,1388.00
2023-04-18T11:45:24.012Z,1383.00
2023-04-18T11:46:24.072Z,1384.00
2023-04-18T11:47:23.038Z,1382.00
2023-04-18T11:48:22.986Z,1382.00
2023-04-18T11:49:22.969Z,1384.00
2023-04-18T11:50:22.973Z,1387.00
2023-04-18T11:51:23.952Z,1384.00
2023-04-18T11:52:22.954Z,1385.00
2023-04-18T11:53:22.952Z,1385.00
2023-04-18T11:54:23.938Z,1386.00
2023-04-18T11:55:22.937Z,1382.00
2023-04-18T11:56:23.920Z,1380.00
2023-04-18T11:57:23.908Z,1375.00
2023-04-18T11:58:22.904Z,1369.00
2023-04-18T11:59:22.915Z,1370.00
2023-04-18T12:00:22.887Z,1368.00
2023-04-18T12:01:22.918Z,1369.00
2023-04-18T12:02:23.981Z,1369.00
2023-04-18T12:03:24.004Z,1369.00
2023-04-18T12:04:23.089Z,1367.00
2023-04-18T12:05:23.120Z,1368.00
2023-04-18T12:06:24.151Z,1366.00
2023-04-18T12:07:23.831Z,1370.00
2023-04-18T12:08:23.849Z,1373.00
2023-04-18T12:09:23.845Z,1380.00
2023-04-18T12:10:23.819Z,1378.00
2023-04-18T12:11:22.804Z,1387.00
2023-04-18T12:12:23.809Z,1405.00
2023-04-18T12:13:23.789Z,1399.00
2023-04-18T12:14:22.779Z,1412.00
2023-04-18T12:15:22.907Z,1463.00
2023-04-18T12:16:22.804Z,1437.00
2023-04-18T12:17:23.823Z,1428.00
2023-04-18T12:18:23.748Z,1420.00
2023-04-18T12:19:23.740Z,1415.00
2023-04-18T12:20:23.736Z,1411.00
2023-04-18T12:21:22.732Z,1413.00
2023-04-18T12:22:23.728Z,1407.00
2023-04-18T12:23:22.741Z,1404.00
2023-04-18T12:24:23.726Z,1402.00
2023-04-18T12:25:27.100Z,1399.00
2023-04-18T12:26:22.730Z,1399.00
2023-04-18T12:27:23.679Z,1397.00
2023-04-18T12:28:22.681Z,1397.00
2023-04-18T12:29:23.692Z,1397.00
2023-04-18T12:30:22.661Z,1398.00
2023-04-18T12:31:23.746Z,1396.00
2023-04-18T12:32:23.662Z,1396.00
2023-04-18T12:33:23.648Z,1393.00
2023-04-18T12:34:22.680Z,1393.00
2023-04-18T12:35:22.633Z,1393.00
2023-04-18T12:36:22.612Z,1393.00
2023-04-18T12:37:23.621Z,1391.00
2023-04-18T12:38:22.615Z,1391.00
2023-04-18T12:39:22.606Z,1391.00
2023-04-18T12:40:22.624Z,1393.00
2023-04-18T12:41:22.590Z,1391.00
2023-04-18T12:42:22.574Z,1391.00
2023-04-18T12:43:23.570Z,1390.00
2023-04-18T12:44:22.568Z,1391.00
2023-04-18T12:45:23.557Z,1390.00
2023-04-18T12:46:22.575Z,1389.00
2023-04-18T12:47:22.632Z,1386.00
2023-04-18T12:48:22.539Z,1387.00
2023-04-18T12:49:23.529Z,1386.00
2023-04-18T12:50:22.568Z,1387.00
2023-04-18T12:51:23.515Z,1388.00
2023-04-18T12:52:22.503Z,1384.00
2023-04-18T12:53:23.527Z,1386.00
2023-04-18T12:54:23.499Z,1387.00
2023-04-18T12:55:22.498Z,1383.00
2023-04-18T12:56:23.485Z,1382.00
2023-04-18T12:57:22.475Z,1379.00
2023-04-18T12:58:22.467Z,1379.00
2023-04-18T12:59:23.466Z,1378.00
2023-04-18T13:00:23.551Z,1376.00
2023-04-18T13:01:22.491Z,1377.00
2023-04-18T13:02:22.541Z,1375.00
2023-04-18T13:03:23.731Z,1372.00
2023-04-18T13:04:23.628Z,1374.00
2023-04-18T13:05:22.426Z,1374.00
2023-04-18T13:06:23.413Z,1377.00
2023-04-18T13:07:23.439Z,1378.00
2023-04-18T13:08:23.401Z,1372.00
2023-04-18T13:09:23.409Z,1372.00
2023-04-18T13:10:23.407Z,1374.00
2023-04-18T13:11:23.368Z,1375.00
2023-04-18T13:12:23.370Z,1374.00
2023-04-18T13:13:22.387Z,1374.00
2023-04-18T13:14:23.349Z,1372.00
2023-04-18T13:15:22.381Z,1366.00
2023-04-18T13:16:23.453Z,1369.00
2023-04-18T13:17:22.369Z,1370.00
2023-04-18T13:18:22.373Z,1370.00
2023-04-18T13:19:23.372Z,1367.00
2023-04-18T13:20:23.323Z,1365.00
2023-04-18T13:21:23.321Z,1364.00
2023-04-18T13:22:23.310Z,1365.00
2023-04-18T13:23:23.323Z,1369.00
2023-04-18T13:24:22.303Z,1369.00
2023-04-18T13:25:23.282Z,1370.00
2023-04-18T13:26:23.283Z,1369.00
2023-04-18T13:27:22.273Z,1368.00
2023-04-18T13:28:22.277Z,1367.00
2023-04-18T13:29:22.270Z,1368.00
2023-04-18T13:30:23.271Z,1370.00
2023-04-18T13:31:23.257Z,1371.00
2023-04-18T13:32:23.253Z,1367.00
2023-04-18T13:33:23.247Z,1368.00
2023-04-18T13:34:23.287Z,1368.00
2023-04-18T13:35:22.310Z,1368.00
2023-04-18T13:36:23.292Z,1366.00
2023-04-18T13:37:22.338Z,1362.00
2023-04-18T13:38:22.357Z,1363.00
2023-04-18T13:39:22.405Z,1364.00
2023-04-18T13:40:23.433Z,1367.00
2023-04-18T13:41:22.418Z,1365.00
2023-04-18T13:42:22.413Z,1366.00
2023-04-18T13:43:22.446Z,1366.00
2023-04-18T13:44:22.429Z,1368.00
2023-04-18T13:45:23.443Z,1369.00
2023-04-18T13:46:23.456Z,1369.00
2023-04-18T13:47:22.452Z,1370.00
2023-04-18T13:48:23.454Z,1369.00
2023-04-18T13:49:23.482Z,1367.00
2023-04-18T13:50:22.467Z,1366.00
2023-04-18T13:51:23.482Z,1368.00
2023-04-18T13:52:22.480Z,1368.00
2023-04-18T13:53:23.470Z,1370.00
2023-04-18T13:54:23.438Z,1368.00
2023-04-18T13:55:23.447Z,1366.00
2023-04-18T13:56:23.452Z,1364.00
2023-04-18T13:57:22.462Z,1365.00
2023-04-18T13:58:22.483Z,1364.00
2023-04-18T13:59:22.511Z,1364.00
2023-04-18T14:00:23.534Z,1365.00
2023-04-18T14:01:23.704Z,1365.00
2023-04-18T14:02:23.673Z,1364.00
2023-04-18T14:03:22.924Z,1364.00
2023-04-18T14:04:23.827Z,1365.00
2023-04-18T14:05:23.676Z,1365.00
2023-04-18T14:06:22.721Z,1363.00
2023-04-18T14:07:23.837Z,1365.00
2023-04-18T14:08:23.843Z,1363.00
2023-04-18T14:09:23.912Z,1364.00
2023-04-18T14:10:22.956Z,1362.00
2023-04-18T14:11:22.978Z,1360.00
2023-04-18T14:12:24.034Z,1364.00
2023-04-18T14:13:23.078Z,1366.00
2023-04-18T14:14:24.148Z,1363.00
2023-04-18T14:15:23.236Z,1365.00
2023-04-18T14:16:24.293Z,1362.00
2023-04-18T14:17:24.320Z,1364.00
2023-04-18T14:18:23.386Z,1367.00
2023-04-18T14:19:23.412Z,1365.00
2023-04-18T14:20:23.435Z,1367.00
2023-04-18T14:21:23.450Z,1369.00
2023-04-18T14:22:23.511Z,1370.00
2023-04-18T14:23:23.519Z,1368.00
2023-04-18T14:24:23.525Z,1368.00
2023-04-18T14:25:24.506Z,1364.00
2023-04-18T14:26:23.495Z,1363.00
2023-04-18T14:27:24.487Z,1361.00
2023-04-18T14:28:24.480Z,1361.00
2023-04-18T14:29:24.476Z,1360.00
2023-04-18T14:30:23.471Z,1359.00
2023-04-18T14:31:24.509Z,1358.00
2023-04-18T14:32:23.496Z,1357.00
2023-04-18T14:33:24.473Z,1358.00
2023-04-18T14:34:23.488Z,1359.00
2023-04-18T14:35:23.459Z,1357.00
2023-04-18T14:36:23.453Z,1354.00
2023-04-18T14:37:24.446Z,1358.00
2023-04-18T14:38:23.447Z,1356.00
2023-04-18T14:39:24.472Z,1353.00
2023-04-18T14:40:24.465Z,1351.00
2023-04-18T14:41:24.463Z,1353.00
2023-04-18T14:42:23.445Z,1355.00
2023-04-18T14:43:23.450Z,1355.00
2023-04-18T14:44:23.442Z,1351.00
2023-04-18T14:45:23.482Z,1352.00
2023-04-18T14:46:23.462Z,1349.00
2023-04-18T14:47:24.373Z,1350.00
2023-04-18T14:48:23.504Z,1347.00
2023-04-18T14:49:24.455Z,1343.00
2023-04-18T14:50:23.505Z,1343.00
2023-04-18T14:51:23.477Z,1340.00
2023-04-18T14:52:24.468Z,1339.00
2023-04-18T14:53:24.494Z,1339.00
2023-04-18T14:54:23.493Z,1341.00
2023-04-18T14:55:23.539Z,1343.00
2023-04-18T14:56:23.533Z,1342.00
2023-04-18T14:57:23.570Z,1343.00
2023-04-18T14:58:24.520Z,1345.00
2023-04-18T14:59:24.561Z,1345.00
2023-04-18T15:00:24.557Z,1346.00
2023-04-18T15:01:23.602Z,1346.00
2023-04-18T15:02:23.647Z,1343.00
2023-04-18T15:03:24.849Z,1343.00
2023-04-18T15:04:24.893Z,1343.00
2023-04-18T15:05:23.625Z,1342.00
2023-04-18T15:06:24.649Z,1342.00
2023-04-18T15:07:24.671Z,1342.00
2023-04-18T15:08:24.690Z,1342.00
2023-04-18T15:09:24.697Z,1344.00
2023-04-18T15:10:24.724Z,1348.00
2023-04-18T15:11:23.761Z,1345.00
2023-04-18T15:12:24.768Z,1348.00
2023-04-18T15:13:24.767Z,1352.00
2023-04-18T15:14:24.816Z,1349.00
2023-04-18T15:15:23.791Z,1349.00
2023-04-18T15:16:24.943Z,1347.00
2023-04-18T15:17:24.850Z,1345.00
2023-04-18T15:18:24.855Z,1343.00
2023-04-18T15:19:24.869Z,1344.00
2023-04-18T15:20:24.196Z,1343.00
2023-04-18T15:21:23.904Z,1344.00
2023-04-18T15:22:23.928Z,1340.00
2023-04-18T15:23:23.956Z,1341.00
2023-04-18T15:24:25.007Z,1340.00
2023-04-18T15:25:25.038Z,1343.00
2023-04-18T15:26:24.069Z,1345.00
2023-04-18T15:27:25.108Z,1344.00
2023-04-18T15:28:24.164Z,1347.00
2023-04-18T15:29:25.162Z,1347.00
